This is the latest recevied weather packets stored in our database for station/object KK7ISX. If no packets are shown the sender has not sent any weather packets the latest 10 day(s).
| Time | Temp. | Humidity | Pressure | Rain* | Wind** | Luminosity | Snow |
|---|---|---|---|---|---|---|---|
| 1777839499 | 25° C | 36% | 1012 hPa | 0 mm | - | 721 W/m² | - |
| 1777838894 | 23.89° C | 37% | 1012.1 hPa | 0 mm | - | 730 W/m² | - |
| 1777838589 | 24.44° C | 36% | 1012.1 hPa | 0 mm | - | 731 W/m² | - |
| 1777836769 | 22.78° C | 38% | 1012.8 hPa | 0 mm | - | 750 W/m² | - |
| 1777835251 | 23.33° C | 39% | 1012.9 hPa | 0 mm | - | 750 W/m² | - |
| 1777834947 | 21.67° C | 40% | 1013.1 hPa | 0 mm | - | 752 W/m² | - |
| 1777834645 | 22.78° C | 41% | 1013.3 hPa | 0 mm | - | 750 W/m² | - |
| 1777834035 | 22.78° C | 38% | 1013.1 hPa | 0 mm | - | 750 W/m² | - |
| 1777833428 | 21.67° C | 38% | 1013.4 hPa | 0 mm | - | 748 W/m² | - |
| 1777833125 | 21.67° C | 38% | 1013.3 hPa | 0 mm | - | 748 W/m² | - |
| 1777832522 | 21.11° C | 41% | 1013.6 hPa | 0 mm | - | 743 W/m² | - |
| 1777832218 | 20.56° C | 41% | 1013.6 hPa | 0 mm | - | 740 W/m² | - |
| 1777831915 | 21.11° C | 41% | 1013.6 hPa | 0 mm | - | 738 W/m² | - |
| 1777831310 | 20.56° C | 43% | 1013.7 hPa | 0 mm | - | 725 W/m² | - |
| 1777831007 | 20.56° C | 45% | 1013.8 hPa | 0 mm | - | 718 W/m² | - |
| 1777830704 | 21.11° C | 44% | 1013.7 hPa | 0 mm | - | 712 W/m² | - |
| 1777829181 | 20° C | 45% | 1014.1 hPa | 0 mm | - | 657 W/m² | - |
| 1777827362 | 19.44° C | 44% | 1014.3 hPa | 0 mm | - | 586 W/m² | - |
| 1777825846 | 18.89° C | 46% | 1014.5 hPa | 0 mm | - | 518 W/m² | - |
| 1777825241 | 17.22° C | 51% | 1014.3 hPa | 0 mm | - | 477 W/m² | - |
| 1777821304 | 14.44° C | 57% | 1014.7 hPa | 0 mm | - | 275 W/m² | - |
| 1777821000 | 14.44° C | 57% | 1014.8 hPa | 0 mm | - | 260 W/m² | - |
| 1777820392 | 14.44° C | 57% | 1014.8 hPa | 0 mm | - | 231 W/m² | - |
| 1777819183 | 13.89° C | 57% | 1014.9 hPa | 0 mm | - | 55 W/m² | - |
| 1777818575 | 13.33° C | 58% | 1014.6 hPa | 0 mm | - | 51 W/m² | - |
* Rain latest hour (hover to see other rain measurements)
** Current wind speed in m/s (hover to see current wind gust speed)